sensor_id;sensor_type;location;lat;lon;timestamp;P1;durP1;ratioP1;P2;durP2;ratioP2
12433;SDS011;6281;49.038;8.372;2022-09-27T00:01:38;2.57;;;1.80;;
12433;SDS011;6281;49.038;8.372;2022-09-27T00:04:12;2.83;;;1.53;;
12433;SDS011;6281;49.038;8.372;2022-09-27T00:06:57;3.37;;;1.60;;
12433;SDS011;6281;49.038;8.372;2022-09-27T00:09:32;1.93;;;1.60;;
12433;SDS011;6281;49.038;8.372;2022-09-27T00:12:09;1.60;;;1.47;;
12433;SDS011;6281;49.038;8.372;2022-09-27T00:14:48;1.70;;;1.40;;
12433;SDS011;6281;49.038;8.372;2022-09-27T00:17:29;2.20;;;1.40;;
12433;SDS011;6281;49.038;8.372;2022-09-27T00:20:03;3.20;;;1.57;;
12433;SDS011;6281;49.038;8.372;2022-09-27T00:22:39;1.50;;;1.30;;
12433;SDS011;6281;49.038;8.372;2022-09-27T00:25:15;2.03;;;1.10;;
12433;SDS011;6281;49.038;8.372;2022-09-27T00:28:08;2.07;;;1.47;;
12433;SDS011;6281;49.038;8.372;2022-09-27T00:30:46;2.60;;;1.80;;
12433;SDS011;6281;49.038;8.372;2022-09-27T00:33:13;1.73;;;1.57;;
12433;SDS011;6281;49.038;8.372;2022-09-27T00:35:46;1.70;;;1.60;;
12433;SDS011;6281;49.038;8.372;2022-09-27T00:38:22;1.93;;;1.63;;
12433;SDS011;6281;49.038;8.372;2022-09-27T00:40:51;2.23;;;1.83;;
12433;SDS011;6281;49.038;8.372;2022-09-27T00:43:22;2.13;;;1.60;;
12433;SDS011;6281;49.038;8.372;2022-09-27T00:45:50;2.60;;;1.90;;
12433;SDS011;6281;49.038;8.372;2022-09-27T00:48:21;2.07;;;1.67;;
12433;SDS011;6281;49.038;8.372;2022-09-27T00:50:54;5.23;;;1.83;;
12433;SDS011;6281;49.038;8.372;2022-09-27T00:53:26;1.77;;;1.67;;
12433;SDS011;6281;49.038;8.372;2022-09-27T00:55:56;1.80;;;1.50;;
12433;SDS011;6281;49.038;8.372;2022-09-27T00:58:28;4.23;;;1.43;;
12433;SDS011;6281;49.038;8.372;2022-09-27T01:00:58;4.17;;;1.50;;
12433;SDS011;6281;49.038;8.372;2022-09-27T01:03:31;1.53;;;1.43;;
12433;SDS011;6281;49.038;8.372;2022-09-27T01:06:06;2.27;;;1.60;;
12433;SDS011;6281;49.038;8.372;2022-09-27T01:08:52;1.90;;;1.77;;
12433;SDS011;6281;49.038;8.372;2022-09-27T01:19:57;2.67;;;1.70;;
12433;SDS011;6281;49.038;8.372;2022-09-27T01:37:21;3.10;;;1.60;;
12433;SDS011;6281;49.038;8.372;2022-09-27T01:43:04;3.27;;;1.30;;
12433;SDS011;6281;49.038;8.372;2022-09-27T01:45:53;3.27;;;1.00;;
12433;SDS011;6281;49.038;8.372;2022-09-27T01:48:25;2.10;;;1.20;;
12433;SDS011;6281;49.038;8.372;2022-09-27T01:51:01;1.87;;;1.73;;
12433;SDS011;6281;49.038;8.372;2022-09-27T01:53:37;3.77;;;1.30;;
12433;SDS011;6281;49.038;8.372;2022-09-27T01:56:17;1.87;;;1.17;;
12433;SDS011;6281;49.038;8.372;2022-09-27T01:58:51;1.80;;;1.10;;
12433;SDS011;6281;49.038;8.372;2022-09-27T02:01:24;3.67;;;1.30;;
12433;SDS011;6281;49.038;8.372;2022-09-27T02:03:54;3.27;;;1.10;;
12433;SDS011;6281;49.038;8.372;2022-09-27T02:06:28;1.73;;;1.10;;
12433;SDS011;6281;49.038;8.372;2022-09-27T02:09:05;1.70;;;1.23;;
12433;SDS011;6281;49.038;8.372;2022-09-27T02:11:37;3.87;;;1.37;;
12433;SDS011;6281;49.038;8.372;2022-09-27T02:14:10;3.90;;;1.27;;
12433;SDS011;6281;49.038;8.372;2022-09-27T02:16:47;4.47;;;1.30;;
12433;SDS011;6281;49.038;8.372;2022-09-27T02:26:11;2.60;;;1.37;;
12433;SDS011;6281;49.038;8.372;2022-09-27T02:32:24;3.67;;;1.50;;
12433;SDS011;6281;49.038;8.372;2022-09-27T02:35:45;3.80;;;1.80;;
12433;SDS011;6281;49.038;8.372;2022-09-27T02:44:49;4.17;;;2.13;;
12433;SDS011;6281;49.038;8.372;2022-09-27T02:51:12;4.33;;;1.90;;
12433;SDS011;6281;49.038;8.372;2022-09-27T02:57:40;6.67;;;2.37;;
12433;SDS011;6281;49.038;8.372;2022-09-27T03:00:53;4.43;;;2.10;;
12433;SDS011;6281;49.038;8.372;2022-09-27T03:03:57;6.73;;;2.40;;
12433;SDS011;6281;49.038;8.372;2022-09-27T03:06:53;4.67;;;2.20;;
12433;SDS011;6281;49.038;8.372;2022-09-27T03:09:42;5.87;;;2.53;;
12433;SDS011;6281;49.038;8.372;2022-09-27T03:12:33;9.20;;;2.67;;
12433;SDS011;6281;49.038;8.372;2022-09-27T03:15:27;7.93;;;2.27;;
12433;SDS011;6281;49.038;8.372;2022-09-27T03:18:13;5.27;;;2.33;;
12433;SDS011;6281;49.038;8.372;2022-09-27T03:20:43;4.37;;;2.40;;
12433;SDS011;6281;49.038;8.372;2022-09-27T03:23:25;9.80;;;2.60;;
12433;SDS011;6281;49.038;8.372;2022-09-27T03:26:20;6.10;;;2.47;;
12433;SDS011;6281;49.038;8.372;2022-09-27T03:29:04;5.57;;;2.37;;
12433;SDS011;6281;49.038;8.372;2022-09-27T03:31:58;7.43;;;1.73;;
12433;SDS011;6281;49.038;8.372;2022-09-27T03:34:52;6.10;;;2.33;;
12433;SDS011;6281;49.038;8.372;2022-09-27T03:40:28;5.00;;;2.50;;
12433;SDS011;6281;49.038;8.372;2022-09-27T03:43:12;7.60;;;3.00;;
12433;SDS011;6281;49.038;8.372;2022-09-27T03:45:56;6.27;;;2.87;;
12433;SDS011;6281;49.038;8.372;2022-09-27T03:48:54;7.07;;;2.83;;
12433;SDS011;6281;49.038;8.372;2022-09-27T03:51:40;7.00;;;2.73;;
12433;SDS011;6281;49.038;8.372;2022-09-27T03:54:17;10.23;;;3.57;;
12433;SDS011;6281;49.038;8.372;2022-09-27T03:59:49;11.80;;;3.27;;
12433;SDS011;6281;49.038;8.372;2022-09-27T04:02:19;9.20;;;3.33;;
12433;SDS011;6281;49.038;8.372;2022-09-27T04:05:17;8.10;;;3.13;;
12433;SDS011;6281;49.038;8.372;2022-09-27T04:08:09;9.17;;;3.23;;
12433;SDS011;6281;49.038;8.372;2022-09-27T04:10:57;8.77;;;3.50;;
12433;SDS011;6281;49.038;8.372;2022-09-27T04:13:33;7.30;;;3.30;;
12433;SDS011;6281;49.038;8.372;2022-09-27T04:16:33;8.77;;;3.57;;
12433;SDS011;6281;49.038;8.372;2022-09-27T04:19:07;9.47;;;3.20;;
12433;SDS011;6281;49.038;8.372;2022-09-27T04:21:47;9.90;;;3.20;;
12433;SDS011;6281;49.038;8.372;2022-09-27T04:24:34;10.33;;;2.97;;
12433;SDS011;6281;49.038;8.372;2022-09-27T04:30:35;7.47;;;3.00;;
12433;SDS011;6281;49.038;8.372;2022-09-27T04:33:18;7.43;;;2.50;;
12433;SDS011;6281;49.038;8.372;2022-09-27T04:36:15;8.30;;;2.67;;
12433;SDS011;6281;49.038;8.372;2022-09-27T04:39:05;6.20;;;2.30;;
12433;SDS011;6281;49.038;8.372;2022-09-27T04:41:50;6.83;;;2.47;;
12433;SDS011;6281;49.038;8.372;2022-09-27T04:44:25;8.37;;;2.33;;
12433;SDS011;6281;49.038;8.372;2022-09-27T04:47:12;3.30;;;1.83;;
12433;SDS011;6281;49.038;8.372;2022-09-27T04:49:55;3.93;;;2.40;;
12433;SDS011;6281;49.038;8.372;2022-09-27T04:52:40;7.60;;;2.47;;
12433;SDS011;6281;49.038;8.372;2022-09-27T04:55:21;4.77;;;2.27;;
12433;SDS011;6281;49.038;8.372;2022-09-27T04:58:13;8.00;;;2.67;;
12433;SDS011;6281;49.038;8.372;2022-09-27T05:01:00;7.77;;;2.40;;
12433;SDS011;6281;49.038;8.372;2022-09-27T05:03:50;6.30;;;2.47;;
12433;SDS011;6281;49.038;8.372;2022-09-27T05:06:49;4.53;;;2.47;;
12433;SDS011;6281;49.038;8.372;2022-09-27T05:09:34;8.50;;;2.57;;
12433;SDS011;6281;49.038;8.372;2022-09-27T05:15:38;5.20;;;2.37;;
12433;SDS011;6281;49.038;8.372;2022-09-27T05:18:29;5.90;;;1.90;;
12433;SDS011;6281;49.038;8.372;2022-09-27T05:21:11;6.67;;;2.30;;
12433;SDS011;6281;49.038;8.372;2022-09-27T05:23:51;6.10;;;1.80;;
12433;SDS011;6281;49.038;8.372;2022-09-27T05:26:27;4.80;;;2.00;;
12433;SDS011;6281;49.038;8.372;2022-09-27T05:29:06;5.33;;;2.27;;
12433;SDS011;6281;49.038;8.372;2022-09-27T05:31:39;3.73;;;2.13;;
12433;SDS011;6281;49.038;8.372;2022-09-27T05:34:25;2.73;;;2.33;;
12433;SDS011;6281;49.038;8.372;2022-09-27T05:37:07;5.83;;;2.30;;
12433;SDS011;6281;49.038;8.372;2022-09-27T05:39:41;4.07;;;1.70;;
12433;SDS011;6281;49.038;8.372;2022-09-27T05:42:27;4.77;;;2.07;;
12433;SDS011;6281;49.038;8.372;2022-09-27T05:45:06;5.83;;;2.53;;
12433;SDS011;6281;49.038;8.372;2022-09-27T05:47:39;5.60;;;2.50;;
12433;SDS011;6281;49.038;8.372;2022-09-27T05:50:13;2.93;;;1.70;;
12433;SDS011;6281;49.038;8.372;2022-09-27T05:53:01;4.97;;;1.87;;
12433;SDS011;6281;49.038;8.372;2022-09-27T05:55:55;3.83;;;2.00;;
12433;SDS011;6281;49.038;8.372;2022-09-27T05:58:45;4.33;;;1.80;;
12433;SDS011;6281;49.038;8.372;2022-09-27T06:01:15;4.73;;;2.13;;
12433;SDS011;6281;49.038;8.372;2022-09-27T06:04:04;6.80;;;1.77;;
12433;SDS011;6281;49.038;8.372;2022-09-27T06:06:46;5.47;;;2.00;;
12433;SDS011;6281;49.038;8.372;2022-09-27T06:10:00;4.40;;;1.80;;
12433;SDS011;6281;49.038;8.372;2022-09-27T06:13:09;3.17;;;1.60;;
12433;SDS011;6281;49.038;8.372;2022-09-27T06:15:48;5.10;;;1.20;;
12433;SDS011;6281;49.038;8.372;2022-09-27T06:18:18;2.23;;;1.30;;
12433;SDS011;6281;49.038;8.372;2022-09-27T06:24:43;1.30;;;0.90;;
12433;SDS011;6281;49.038;8.372;2022-09-27T06:27:19;3.03;;;1.10;;
12433;SDS011;6281;49.038;8.372;2022-09-27T06:30:01;2.50;;;1.33;;
12433;SDS011;6281;49.038;8.372;2022-09-27T06:35:41;1.40;;;1.20;;
12433;SDS011;6281;49.038;8.372;2022-09-27T06:38:16;4.77;;;1.20;;
12433;SDS011;6281;49.038;8.372;2022-09-27T06:41:04;1.87;;;1.43;;
12433;SDS011;6281;49.038;8.372;2022-09-27T06:43:48;2.10;;;1.00;;
12433;SDS011;6281;49.038;8.372;2022-09-27T06:46:22;2.00;;;1.17;;
12433;SDS011;6281;49.038;8.372;2022-09-27T06:48:54;3.97;;;1.30;;
12433;SDS011;6281;49.038;8.372;2022-09-27T06:51:25;1.17;;;0.90;;
12433;SDS011;6281;49.038;8.372;2022-09-27T06:53:53;3.70;;;1.10;;
12433;SDS011;6281;49.038;8.372;2022-09-27T06:56:26;1.30;;;0.83;;
12433;SDS011;6281;49.038;8.372;2022-09-27T06:59:01;1.23;;;1.10;;
12433;SDS011;6281;49.038;8.372;2022-09-27T07:01:45;1.53;;;1.10;;
12433;SDS011;6281;49.038;8.372;2022-09-27T07:04:18;1.47;;;0.80;;
12433;SDS011;6281;49.038;8.372;2022-09-27T07:06:51;1.77;;;1.07;;
12433;SDS011;6281;49.038;8.372;2022-09-27T07:09:19;3.37;;;1.10;;
12433;SDS011;6281;49.038;8.372;2022-09-27T07:11:48;2.57;;;1.10;;
12433;SDS011;6281;49.038;8.372;2022-09-27T07:14:15;1.13;;;0.90;;
12433;SDS011;6281;49.038;8.372;2022-09-27T07:16:42;1.10;;;1.00;;
12433;SDS011;6281;49.038;8.372;2022-09-27T07:19:13;1.20;;;0.97;;
12433;SDS011;6281;49.038;8.372;2022-09-27T07:21:42;2.20;;;1.10;;
12433;SDS011;6281;49.038;8.372;2022-09-27T07:24:11;1.80;;;1.00;;
12433;SDS011;6281;49.038;8.372;2022-09-27T07:26:38;2.83;;;1.17;;
12433;SDS011;6281;49.038;8.372;2022-09-27T07:29:06;0.97;;;0.83;;
12433;SDS011;6281;49.038;8.372;2022-09-27T07:31:34;2.10;;;0.90;;
12433;SDS011;6281;49.038;8.372;2022-09-27T07:34:02;3.27;;;1.20;;
12433;SDS011;6281;49.038;8.372;2022-09-27T07:36:29;2.57;;;1.00;;
12433;SDS011;6281;49.038;8.372;2022-09-27T07:38:57;2.40;;;1.43;;
12433;SDS011;6281;49.038;8.372;2022-09-27T07:41:24;3.53;;;1.20;;
12433;SDS011;6281;49.038;8.372;2022-09-27T07:43:51;2.10;;;1.03;;
12433;SDS011;6281;49.038;8.372;2022-09-27T07:46:20;1.57;;;1.07;;
12433;SDS011;6281;49.038;8.372;2022-09-27T07:48:49;1.93;;;1.20;;
12433;SDS011;6281;49.038;8.372;2022-09-27T07:51:16;1.87;;;0.90;;
12433;SDS011;6281;49.038;8.372;2022-09-27T07:53:43;1.87;;;1.33;;
12433;SDS011;6281;49.038;8.372;2022-09-27T07:56:10;3.47;;;1.90;;
12433;SDS011;6281;49.038;8.372;2022-09-27T07:58:37;4.23;;;1.30;;
12433;SDS011;6281;49.038;8.372;2022-09-27T08:01:04;1.57;;;1.20;;
12433;SDS011;6281;49.038;8.372;2022-09-27T08:03:33;1.90;;;1.17;;
12433;SDS011;6281;49.038;8.372;2022-09-27T08:06:00;1.53;;;1.10;;
12433;SDS011;6281;49.038;8.372;2022-09-27T08:08:28;2.70;;;1.20;;
12433;SDS011;6281;49.038;8.372;2022-09-27T08:10:55;2.83;;;1.40;;
12433;SDS011;6281;49.038;8.372;2022-09-27T08:13:23;4.10;;;2.33;;
12433;SDS011;6281;49.038;8.372;2022-09-27T08:15:50;5.23;;;2.70;;
12433;SDS011;6281;49.038;8.372;2022-09-27T08:18:17;3.23;;;2.17;;
12433;SDS011;6281;49.038;8.372;2022-09-27T08:20:47;3.47;;;1.80;;
12433;SDS011;6281;49.038;8.372;2022-09-27T08:23:14;7.13;;;2.13;;
12433;SDS011;6281;49.038;8.372;2022-09-27T08:25:41;2.70;;;1.40;;
12433;SDS011;6281;49.038;8.372;2022-09-27T08:28:08;3.63;;;1.90;;
12433;SDS011;6281;49.038;8.372;2022-09-27T08:30:35;3.83;;;1.97;;
12433;SDS011;6281;49.038;8.372;2022-09-27T08:33:02;4.80;;;2.13;;
12433;SDS011;6281;49.038;8.372;2022-09-27T08:35:30;5.43;;;1.67;;
12433;SDS011;6281;49.038;8.372;2022-09-27T08:37:59;3.80;;;1.87;;
12433;SDS011;6281;49.038;8.372;2022-09-27T08:40:30;3.57;;;2.10;;
12433;SDS011;6281;49.038;8.372;2022-09-27T08:43:10;2.90;;;2.03;;
12433;SDS011;6281;49.038;8.372;2022-09-27T08:45:48;2.57;;;1.37;;
12433;SDS011;6281;49.038;8.372;2022-09-27T08:48:24;4.43;;;1.87;;
12433;SDS011;6281;49.038;8.372;2022-09-27T08:50:54;2.30;;;2.00;;
12433;SDS011;6281;49.038;8.372;2022-09-27T08:53:24;3.20;;;1.80;;
12433;SDS011;6281;49.038;8.372;2022-09-27T08:55:56;3.10;;;1.77;;
12433;SDS011;6281;49.038;8.372;2022-09-27T08:58:24;2.20;;;2.00;;
12433;SDS011;6281;49.038;8.372;2022-09-27T09:00:53;3.67;;;1.60;;
12433;SDS011;6281;49.038;8.372;2022-09-27T09:03:23;1.50;;;1.33;;
12433;SDS011;6281;49.038;8.372;2022-09-27T09:05:56;3.50;;;2.40;;
12433;SDS011;6281;49.038;8.372;2022-09-27T09:08:37;3.37;;;1.93;;
12433;SDS011;6281;49.038;8.372;2022-09-27T09:11:14;3.77;;;2.07;;
12433;SDS011;6281;49.038;8.372;2022-09-27T09:14:23;3.00;;;1.90;;
12433;SDS011;6281;49.038;8.372;2022-09-27T09:17:03;6.70;;;2.57;;
12433;SDS011;6281;49.038;8.372;2022-09-27T09:19:45;5.07;;;2.30;;
12433;SDS011;6281;49.038;8.372;2022-09-27T09:22:25;4.73;;;2.73;;
12433;SDS011;6281;49.038;8.372;2022-09-27T09:28:06;7.10;;;3.17;;
12433;SDS011;6281;49.038;8.372;2022-09-27T09:30:48;3.73;;;2.00;;
12433;SDS011;6281;49.038;8.372;2022-09-27T09:33:29;3.90;;;2.70;;
12433;SDS011;6281;49.038;8.372;2022-09-27T09:36:16;4.97;;;2.70;;
12433;SDS011;6281;49.038;8.372;2022-09-27T09:39:21;5.80;;;2.30;;
12433;SDS011;6281;49.038;8.372;2022-09-27T09:45:06;3.50;;;2.30;;
12433;SDS011;6281;49.038;8.372;2022-09-27T09:47:44;5.70;;;2.33;;
12433;SDS011;6281;49.038;8.372;2022-09-27T09:50:17;4.37;;;2.33;;
12433;SDS011;6281;49.038;8.372;2022-09-27T09:53:01;9.53;;;3.00;;
12433;SDS011;6281;49.038;8.372;2022-09-27T10:16:20;5.40;;;3.27;;
12433;SDS011;6281;49.038;8.372;2022-09-27T10:29:14;5.90;;;2.40;;
12433;SDS011;6281;49.038;8.372;2022-09-27T10:31:49;4.63;;;2.00;;
12433;SDS011;6281;49.038;8.372;2022-09-27T10:34:26;5.73;;;2.50;;
12433;SDS011;6281;49.038;8.372;2022-09-27T10:37:04;3.07;;;1.67;;
12433;SDS011;6281;49.038;8.372;2022-09-27T10:39:43;3.30;;;1.20;;
12433;SDS011;6281;49.038;8.372;2022-09-27T10:42:38;2.07;;;1.00;;
12433;SDS011;6281;49.038;8.372;2022-09-27T10:45:26;1.17;;;0.63;;
12433;SDS011;6281;49.038;8.372;2022-09-27T10:47:58;1.10;;;0.80;;
12433;SDS011;6281;49.038;8.372;2022-09-27T10:50:27;0.87;;;0.80;;
12433;SDS011;6281;49.038;8.372;2022-09-27T10:53:00;1.23;;;0.60;;
12433;SDS011;6281;49.038;8.372;2022-09-27T10:55:46;1.70;;;0.90;;
12433;SDS011;6281;49.038;8.372;2022-09-27T11:01:25;0.80;;;0.70;;
12433;SDS011;6281;49.038;8.372;2022-09-27T11:04:03;0.60;;;0.47;;
12433;SDS011;6281;49.038;8.372;2022-09-27T11:06:35;0.70;;;0.60;;
12433;SDS011;6281;49.038;8.372;2022-09-27T11:09:14;0.93;;;0.70;;
12433;SDS011;6281;49.038;8.372;2022-09-27T11:11:48;0.53;;;0.53;;
12433;SDS011;6281;49.038;8.372;2022-09-27T11:14:25;1.07;;;0.80;;
12433;SDS011;6281;49.038;8.372;2022-09-27T11:17:05;1.73;;;0.60;;
12433;SDS011;6281;49.038;8.372;2022-09-27T11:19:45;2.80;;;0.67;;
12433;SDS011;6281;49.038;8.372;2022-09-27T11:22:32;0.50;;;0.50;;
12433;SDS011;6281;49.038;8.372;2022-09-27T11:25:24;1.60;;;0.60;;
12433;SDS011;6281;49.038;8.372;2022-09-27T11:28:06;1.90;;;0.70;;
12433;SDS011;6281;49.038;8.372;2022-09-27T12:01:03;0.50;;;0.50;;
12433;SDS011;6281;49.038;8.372;2022-09-27T12:04:11;0.70;;;0.50;;
12433;SDS011;6281;49.038;8.372;2022-09-27T12:06:56;0.80;;;0.70;;
12433;SDS011;6281;49.038;8.372;2022-09-27T12:09:31;1.47;;;0.70;;
12433;SDS011;6281;49.038;8.372;2022-09-27T12:12:03;4.93;;;1.10;;
12433;SDS011;6281;49.038;8.372;2022-09-27T12:14:38;0.93;;;0.63;;
12433;SDS011;6281;49.038;8.372;2022-09-27T12:19:55;2.53;;;0.80;;
12433;SDS011;6281;49.038;8.372;2022-09-27T12:21:02;1.43;;;0.70;;
12433;SDS011;6281;49.038;8.372;2022-09-27T12:23:52;0.63;;;0.60;;
12433;SDS011;6281;49.038;8.372;2022-09-27T12:30:13;1.57;;;0.90;;
12433;SDS011;6281;49.038;8.372;2022-09-27T12:32:43;1.87;;;1.00;;
12433;SDS011;6281;49.038;8.372;2022-09-27T12:35:19;3.23;;;1.00;;
12433;SDS011;6281;49.038;8.372;2022-09-27T12:37:50;2.70;;;0.90;;
12433;SDS011;6281;49.038;8.372;2022-09-27T12:40:24;2.40;;;0.70;;
12433;SDS011;6281;49.038;8.372;2022-09-27T12:42:56;0.80;;;0.80;;
12433;SDS011;6281;49.038;8.372;2022-09-27T12:45:31;1.70;;;0.70;;
12433;SDS011;6281;49.038;8.372;2022-09-27T12:48:07;0.87;;;0.70;;
12433;SDS011;6281;49.038;8.372;2022-09-27T12:50:42;2.30;;;1.00;;
12433;SDS011;6281;49.038;8.372;2022-09-27T12:53:12;1.20;;;0.80;;
12433;SDS011;6281;49.038;8.372;2022-09-27T12:59:03;1.97;;;1.10;;
12433;SDS011;6281;49.038;8.372;2022-09-27T13:05:24;1.57;;;0.87;;
12433;SDS011;6281;49.038;8.372;2022-09-27T13:08:28;2.20;;;1.03;;
12433;SDS011;6281;49.038;8.372;2022-09-27T13:11:07;1.30;;;1.03;;
12433;SDS011;6281;49.038;8.372;2022-09-27T13:13:40;1.73;;;0.90;;
12433;SDS011;6281;49.038;8.372;2022-09-27T13:16:09;3.70;;;1.17;;
12433;SDS011;6281;49.038;8.372;2022-09-27T13:18:49;1.07;;;0.70;;
12433;SDS011;6281;49.038;8.372;2022-09-27T13:24:30;1.30;;;0.80;;
12433;SDS011;6281;49.038;8.372;2022-09-27T13:36:26;1.50;;;1.07;;
12433;SDS011;6281;49.038;8.372;2022-09-27T13:39:02;1.77;;;1.13;;
12433;SDS011;6281;49.038;8.372;2022-09-27T13:41:53;2.00;;;1.10;;
12433;SDS011;6281;49.038;8.372;2022-09-27T13:44:33;1.27;;;0.90;;
12433;SDS011;6281;49.038;8.372;2022-09-27T13:47:21;2.50;;;0.90;;
12433;SDS011;6281;49.038;8.372;2022-09-27T13:49:56;1.10;;;0.60;;
12433;SDS011;6281;49.038;8.372;2022-09-27T13:52:29;2.83;;;0.70;;
12433;SDS011;6281;49.038;8.372;2022-09-27T13:55:00;0.70;;;0.70;;
12433;SDS011;6281;49.038;8.372;2022-09-27T13:57:42;1.53;;;0.80;;
12433;SDS011;6281;49.038;8.372;2022-09-27T14:00:23;1.20;;;0.60;;
12433;SDS011;6281;49.038;8.372;2022-09-27T14:02:59;2.40;;;0.90;;
12433;SDS011;6281;49.038;8.372;2022-09-27T14:05:39;2.90;;;1.03;;
12433;SDS011;6281;49.038;8.372;2022-09-27T14:08:19;0.67;;;0.67;;
12433;SDS011;6281;49.038;8.372;2022-09-27T14:10:52;3.30;;;1.00;;
12433;SDS011;6281;49.038;8.372;2022-09-27T14:13:21;1.33;;;0.77;;
12433;SDS011;6281;49.038;8.372;2022-09-27T14:15:50;0.60;;;0.53;;
12433;SDS011;6281;49.038;8.372;2022-09-27T14:18:18;1.00;;;0.90;;
12433;SDS011;6281;49.038;8.372;2022-09-27T14:20:48;0.80;;;0.60;;
12433;SDS011;6281;49.038;8.372;2022-09-27T14:23:19;1.40;;;0.70;;
12433;SDS011;6281;49.038;8.372;2022-09-27T14:25:49;3.80;;;1.10;;
12433;SDS011;6281;49.038;8.372;2022-09-27T14:28:18;1.90;;;0.87;;
12433;SDS011;6281;49.038;8.372;2022-09-27T14:30:47;1.07;;;0.70;;
12433;SDS011;6281;49.038;8.372;2022-09-27T14:33:27;0.80;;;0.70;;
12433;SDS011;6281;49.038;8.372;2022-09-27T14:35:57;1.27;;;0.60;;
12433;SDS011;6281;49.038;8.372;2022-09-27T14:38:43;1.00;;;0.80;;
12433;SDS011;6281;49.038;8.372;2022-09-27T14:41:13;1.03;;;0.60;;
12433;SDS011;6281;49.038;8.372;2022-09-27T14:43:41;0.67;;;0.50;;
12433;SDS011;6281;49.038;8.372;2022-09-27T14:46:22;3.13;;;0.87;;
12433;SDS011;6281;49.038;8.372;2022-09-27T14:48:52;1.33;;;0.87;;
12433;SDS011;6281;49.038;8.372;2022-09-27T14:51:25;2.10;;;0.73;;
12433;SDS011;6281;49.038;8.372;2022-09-27T14:53:54;1.17;;;0.83;;
12433;SDS011;6281;49.038;8.372;2022-09-27T14:56:25;1.93;;;0.90;;
12433;SDS011;6281;49.038;8.372;2022-09-27T14:58:57;2.00;;;0.77;;
12433;SDS011;6281;49.038;8.372;2022-09-27T15:01:27;2.20;;;0.63;;
12433;SDS011;6281;49.038;8.372;2022-09-27T15:03:55;0.93;;;0.70;;
12433;SDS011;6281;49.038;8.372;2022-09-27T15:06:29;1.10;;;0.60;;
12433;SDS011;6281;49.038;8.372;2022-09-27T15:08:57;2.10;;;0.70;;
12433;SDS011;6281;49.038;8.372;2022-09-27T15:11:25;1.67;;;0.77;;
12433;SDS011;6281;49.038;8.372;2022-09-27T15:13:53;3.23;;;0.73;;
12433;SDS011;6281;49.038;8.372;2022-09-27T15:16:22;2.37;;;0.60;;
12433;SDS011;6281;49.038;8.372;2022-09-27T15:18:57;1.33;;;0.87;;
12433;SDS011;6281;49.038;8.372;2022-09-27T15:21:28;2.47;;;0.90;;
12433;SDS011;6281;49.038;8.372;2022-09-27T15:23:58;0.80;;;0.70;;
12433;SDS011;6281;49.038;8.372;2022-09-27T15:26:32;1.00;;;0.80;;
12433;SDS011;6281;49.038;8.372;2022-09-27T15:29:01;1.30;;;0.80;;
12433;SDS011;6281;49.038;8.372;2022-09-27T15:31:30;3.57;;;1.10;;
12433;SDS011;6281;49.038;8.372;2022-09-27T15:33:59;2.53;;;1.07;;
12433;SDS011;6281;49.038;8.372;2022-09-27T15:39:25;1.70;;;0.80;;
12433;SDS011;6281;49.038;8.372;2022-09-27T15:42:02;1.77;;;1.30;;
12433;SDS011;6281;49.038;8.372;2022-09-27T15:44:38;2.97;;;0.67;;
12433;SDS011;6281;49.038;8.372;2022-09-27T15:53:01;0.90;;;0.50;;
12433;SDS011;6281;49.038;8.372;2022-09-27T15:55:31;2.07;;;0.87;;
12433;SDS011;6281;49.038;8.372;2022-09-27T15:58:01;1.80;;;0.90;;
12433;SDS011;6281;49.038;8.372;2022-09-27T16:00:32;1.43;;;0.90;;
12433;SDS011;6281;49.038;8.372;2022-09-27T16:03:00;1.93;;;0.70;;
12433;SDS011;6281;49.038;8.372;2022-09-27T16:05:27;1.40;;;0.50;;
12433;SDS011;6281;49.038;8.372;2022-09-27T16:07:57;2.60;;;0.63;;
12433;SDS011;6281;49.038;8.372;2022-09-27T16:10:28;1.37;;;0.70;;
12433;SDS011;6281;49.038;8.372;2022-09-27T16:13:00;2.03;;;0.63;;
12433;SDS011;6281;49.038;8.372;2022-09-27T16:15:27;3.07;;;0.63;;
12433;SDS011;6281;49.038;8.372;2022-09-27T16:17:54;1.03;;;0.70;;
12433;SDS011;6281;49.038;8.372;2022-09-27T16:20:22;1.80;;;0.70;;
12433;SDS011;6281;49.038;8.372;2022-09-27T16:22:52;2.13;;;0.60;;
12433;SDS011;6281;49.038;8.372;2022-09-27T16:25:20;2.37;;;1.10;;
12433;SDS011;6281;49.038;8.372;2022-09-27T16:27:50;3.23;;;0.80;;
12433;SDS011;6281;49.038;8.372;2022-09-27T16:30:17;2.53;;;0.93;;
12433;SDS011;6281;49.038;8.372;2022-09-27T16:32:45;5.97;;;0.93;;
12433;SDS011;6281;49.038;8.372;2022-09-27T16:35:14;2.37;;;0.70;;
12433;SDS011;6281;49.038;8.372;2022-09-27T16:37:42;2.20;;;0.93;;
12433;SDS011;6281;49.038;8.372;2022-09-27T16:40:10;1.07;;;0.70;;
12433;SDS011;6281;49.038;8.372;2022-09-27T16:42:37;1.67;;;0.90;;
12433;SDS011;6281;49.038;8.372;2022-09-27T16:45:07;1.30;;;0.90;;
12433;SDS011;6281;49.038;8.372;2022-09-27T16:47:34;2.43;;;0.83;;
12433;SDS011;6281;49.038;8.372;2022-09-27T16:50:01;1.23;;;0.80;;
12433;SDS011;6281;49.038;8.372;2022-09-27T16:52:46;3.07;;;0.93;;
12433;SDS011;6281;49.038;8.372;2022-09-27T16:55:14;1.27;;;0.90;;
12433;SDS011;6281;49.038;8.372;2022-09-27T16:57:44;1.70;;;0.77;;
12433;SDS011;6281;49.038;8.372;2022-09-27T17:00:13;1.33;;;0.90;;
12433;SDS011;6281;49.038;8.372;2022-09-27T17:02:41;2.17;;;0.70;;
12433;SDS011;6281;49.038;8.372;2022-09-27T17:05:11;1.47;;;1.20;;
12433;SDS011;6281;49.038;8.372;2022-09-27T17:07:38;2.50;;;0.90;;
12433;SDS011;6281;49.038;8.372;2022-09-27T17:10:05;3.07;;;0.93;;
12433;SDS011;6281;49.038;8.372;2022-09-27T17:12:33;1.57;;;0.80;;
12433;SDS011;6281;49.038;8.372;2022-09-27T17:15:00;1.73;;;0.80;;
12433;SDS011;6281;49.038;8.372;2022-09-27T17:17:29;3.20;;;0.87;;
12433;SDS011;6281;49.038;8.372;2022-09-27T17:19:56;1.03;;;0.83;;
12433;SDS011;6281;49.038;8.372;2022-09-27T17:22:23;1.80;;;0.73;;
12433;SDS011;6281;49.038;8.372;2022-09-27T17:24:50;1.27;;;0.90;;
12433;SDS011;6281;49.038;8.372;2022-09-27T17:27:19;4.10;;;1.07;;
12433;SDS011;6281;49.038;8.372;2022-09-27T17:29:49;2.13;;;0.90;;
12433;SDS011;6281;49.038;8.372;2022-09-27T17:32:19;1.40;;;0.70;;
12433;SDS011;6281;49.038;8.372;2022-09-27T17:34:52;2.73;;;0.93;;
12433;SDS011;6281;49.038;8.372;2022-09-27T17:37:20;2.53;;;1.03;;
12433;SDS011;6281;49.038;8.372;2022-09-27T17:39:47;3.20;;;1.10;;
12433;SDS011;6281;49.038;8.372;2022-09-27T17:42:14;3.03;;;0.97;;
12433;SDS011;6281;49.038;8.372;2022-09-27T17:44:42;2.33;;;1.00;;
12433;SDS011;6281;49.038;8.372;2022-09-27T17:47:10;0.70;;;0.70;;
12433;SDS011;6281;49.038;8.372;2022-09-27T17:49:56;2.40;;;0.70;;
12433;SDS011;6281;49.038;8.372;2022-09-27T17:52:40;2.73;;;1.00;;
12433;SDS011;6281;49.038;8.372;2022-09-27T17:55:07;2.73;;;0.70;;
12433;SDS011;6281;49.038;8.372;2022-09-27T17:57:35;1.67;;;0.70;;
12433;SDS011;6281;49.038;8.372;2022-09-27T18:00:03;1.37;;;0.80;;
12433;SDS011;6281;49.038;8.372;2022-09-27T18:02:31;3.20;;;1.00;;
12433;SDS011;6281;49.038;8.372;2022-09-27T18:05:00;3.93;;;1.03;;
12433;SDS011;6281;49.038;8.372;2022-09-27T18:07:27;0.70;;;0.50;;
12433;SDS011;6281;49.038;8.372;2022-09-27T18:09:54;0.90;;;0.67;;
12433;SDS011;6281;49.038;8.372;2022-09-27T18:12:22;2.00;;;1.00;;
12433;SDS011;6281;49.038;8.372;2022-09-27T18:14:55;4.57;;;0.77;;
12433;SDS011;6281;49.038;8.372;2022-09-27T18:17:22;1.33;;;0.73;;
12433;SDS011;6281;49.038;8.372;2022-09-27T18:19:51;3.43;;;1.00;;
12433;SDS011;6281;49.038;8.372;2022-09-27T18:22:19;1.97;;;0.80;;
12433;SDS011;6281;49.038;8.372;2022-09-27T18:24:48;1.27;;;0.80;;
12433;SDS011;6281;49.038;8.372;2022-09-27T18:27:15;2.70;;;1.00;;
12433;SDS011;6281;49.038;8.372;2022-09-27T18:29:44;2.80;;;0.90;;
12433;SDS011;6281;49.038;8.372;2022-09-27T18:32:11;2.37;;;1.00;;
12433;SDS011;6281;49.038;8.372;2022-09-27T18:34:38;2.10;;;1.10;;
12433;SDS011;6281;49.038;8.372;2022-09-27T18:37:05;2.50;;;1.10;;
12433;SDS011;6281;49.038;8.372;2022-09-27T18:39:33;1.73;;;1.17;;
12433;SDS011;6281;49.038;8.372;2022-09-27T18:42:00;5.70;;;1.77;;
12433;SDS011;6281;49.038;8.372;2022-09-27T18:44:27;1.47;;;1.10;;
12433;SDS011;6281;49.038;8.372;2022-09-27T18:46:54;2.53;;;1.70;;